Manhattan II — WDI3286 — position and weather

sailwx.info

Track history (hours):
 
Tides and Currents Weather Stations Pressure Air Temp Water Temp Dewpoint Dewpoint Depression Visibility Wind Speed Wind Dir Waves Ship Positions

Manhattan II

Owner: Classic Harbor Lines, LLC, Albany, NY. More information available from US FCC via Universal Licensing System and Coast Guard Vessel Documentation Center.

Last reported at 2018-Jan-21 02:31 UTC. Time now 2018-Jan-21 08:45 UTC.
Position N 40°45' W 074°01'.

Length 30 m.

Type: Passenger vessel. MMSI: 367686740.

Date/timePositionNaut miles runAvg speedWind from/ knotsBaromVisibWave heightAir tempDewpointWater temp
2018-Jan-21 02:31N 40°45' W 074°01'0 0.0
2018-Jan-21 02:30N 40°45' W 074°01'3 5.9
2018-Jan-21 02:00N 40°42' W 074°01'2 4.4
2018-Jan-21 01:30N 40°43' W 073°58'4 7.8
2018-Jan-21 01:00N 40°41' W 074°03'4 7.6
2018-Jan-21 00:29N 40°45' W 074°01'0 0.0
2018-Jan-20 23:59N 40°45' W 074°01'0 0.0
2018-Jan-20 23:29N 40°45' W 074°01'3 5.7
2018-Jan-20 22:59N 40°42' W 074°00'2 4.0
2018-Jan-20 22:30N 40°41' W 074°02'4 7.4
2018-Jan-20 21:59N 40°45' W 074°01'0 0.0
2018-Jan-20 21:29N 40°45' W 074°01'3 6.1
2018-Jan-20 21:00N 40°48' W 073°59'3 6.1
2018-Jan-20 20:30N 40°45' W 074°01'2 4.4
2018-Jan-20 20:00N 40°44' W 073°58'0 0.7
2018-Jan-20 19:30N 40°44' W 073°58'5 9.8
2018-Jan-20 19:00N 40°41' W 074°03'4 8.0
2018-Jan-20 18:29N 40°45' W 074°01'0 0.0
2018-Jan-19 20:29N 40°45' W 074°01'3 6.2
2018-Jan-19 19:59N 40°42' W 074°01'2 3.1
2018-Jan-19 19:30N 40°42' W 073°59'2 4.9
2018-Jan-19 19:00N 40°42' W 074°02'3 6.7
2018-Jan-19 18:30N 40°45' W 074°01'0 0.0
2018-Jan-19 17:59N 40°45' W 074°01'3 5.2
2018-Jan-19 17:29N 40°42' W 073°59'2 4.0
2018-Jan-19 17:00N 40°42' W 074°02'3 5.9
2018-Jan-19 16:28N 40°45' W 074°01'  
2018-Jan-12 15:00N 40°43' W 074°02'  
Track history (hours):
 
Tides and Currents Weather Stations Pressure Air Temp Water Temp Dewpoint Dewpoint Depression Visibility Wind Speed Wind Dir Waves Ship Positions

Manhattan II

Owner: Classic Harbor Lines, LLC, Albany, NY. More information available from US FCC via Universal Licensing System and Coast Guard Vessel Documentation Center.

Last reported at 2018-Jan-21 02:31 UTC. Time now 2018-Jan-21 08:45 UTC.
Position N 40°45' W 074°01'.

Length 30 m.

Type: Passenger vessel. MMSI: 367686740.

Date/timePositionNaut miles runAvg speedWind from/ knotsBaromVisibWave heightAir tempDewpointWater temp
2018-Jan-21 02:31N 40°45' W 074°01'0 0.0
2018-Jan-21 02:30N 40°45' W 074°01'3 5.9
2018-Jan-21 02:00N 40°42' W 074°01'2 4.4
2018-Jan-21 01:30N 40°43' W 073°58'4 7.8
2018-Jan-21 01:00N 40°41' W 074°03'4 7.6
2018-Jan-21 00:29N 40°45' W 074°01'0 0.0
2018-Jan-20 23:59N 40°45' W 074°01'0 0.0
2018-Jan-20 23:29N 40°45' W 074°01'3 5.7
2018-Jan-20 22:59N 40°42' W 074°00'2 4.0
2018-Jan-20 22:30N 40°41' W 074°02'4 7.4
2018-Jan-20 21:59N 40°45' W 074°01'0 0.0
2018-Jan-20 21:29N 40°45' W 074°01'3 6.1
2018-Jan-20 21:00N 40°48' W 073°59'3 6.1
2018-Jan-20 20:30N 40°45' W 074°01'2 4.4
2018-Jan-20 20:00N 40°44' W 073°58'0 0.7
2018-Jan-20 19:30N 40°44' W 073°58'5 9.8
2018-Jan-20 19:00N 40°41' W 074°03'4 8.0
2018-Jan-20 18:29N 40°45' W 074°01'0 0.0
2018-Jan-19 20:29N 40°45' W 074°01'3 6.2
2018-Jan-19 19:59N 40°42' W 074°01'2 3.1
2018-Jan-19 19:30N 40°42' W 073°59'2 4.9
2018-Jan-19 19:00N 40°42' W 074°02'3 6.7
2018-Jan-19 18:30N 40°45' W 074°01'0 0.0
2018-Jan-19 17:59N 40°45' W 074°01'3 5.2
2018-Jan-19 17:29N 40°42' W 073°59'2 4.0
2018-Jan-19 17:00N 40°42' W 074°02'3 5.9
2018-Jan-19 16:28N 40°45' W 074°01'  
2018-Jan-12 15:00N 40°43' W 074°02'  

Dump ship's entire track history